createdAt,value
2024-01-12T04:58:42.299Z,101212.47
2024-01-12T05:01:45.191Z,101212.47
2024-01-12T05:04:47.488Z,101235.59
2024-01-12T05:07:52.625Z,101247.59
2024-01-12T05:10:55.735Z,101246.00
2024-01-12T05:13:58.237Z,101242.97
2024-01-12T05:17:00.437Z,101254.19
2024-01-12T05:20:10.151Z,101250.25
2024-01-12T05:23:12.388Z,101246.03
2024-01-12T05:26:15.603Z,101250.53
2024-01-12T05:29:17.890Z,101261.06
2024-01-12T05:32:20.430Z,101261.03
2024-01-12T05:35:22.885Z,101259.16
2024-01-12T05:38:25.380Z,101269.78
2024-01-12T05:41:27.747Z,101272.13
2024-01-12T05:44:30.865Z,101276.22
2024-01-12T05:47:33.942Z,101284.91
2024-01-12T05:50:36.608Z,101289.22
2024-01-12T05:53:38.940Z,101285.84
2024-01-12T05:56:41.529Z,101291.53
2024-01-12T05:59:43.756Z,101293.59
2024-01-12T06:02:46.265Z,101288.41
2024-01-12T06:05:51.518Z,101295.00
2024-01-12T06:08:53.914Z,101281.13
2024-01-12T06:11:58.452Z,101294.44
2024-01-12T06:15:01.205Z,101290.50
2024-01-12T06:18:04.271Z,101285.72
2024-01-12T06:21:06.655Z,101304.59
2024-01-12T06:24:12.911Z,101301.16
2024-01-12T06:27:15.281Z,101309.69
2024-01-12T06:30:18.040Z,101311.31
2024-01-12T06:33:20.415Z,101317.66
2024-01-12T06:36:23.154Z,101310.09
2024-01-12T06:39:25.476Z,101310.69
2024-01-12T06:42:29.257Z,101306.88
2024-01-12T06:45:31.500Z,101312.34
2024-01-12T06:48:35.514Z,101308.53
2024-01-12T06:51:37.797Z,101313.25
2024-01-12T06:54:44.571Z,101315.06
2024-01-12T06:57:48.123Z,101327.94
2024-01-12T07:00:50.784Z,101324.87
2024-01-12T07:03:53.288Z,101330.06
2024-01-12T07:06:55.875Z,101323.19
2024-01-12T07:09:58.132Z,101338.66
2024-01-12T07:13:00.602Z,101337.12
2024-01-12T07:16:03.061Z,101349.00
2024-01-12T07:19:06.255Z,101357.97
2024-01-12T07:22:08.555Z,101358.56
2024-01-12T07:25:11.111Z,101361.34
2024-01-12T07:28:13.298Z,101372.16
2024-01-12T07:31:15.824Z,101365.44
2024-01-12T07:34:18.841Z,101372.78
2024-01-12T07:37:21.449Z,101368.16
2024-01-12T07:40:23.722Z,101373.59
2024-01-12T07:43:28.225Z,101375.84
2024-01-12T07:46:30.998Z,101373.34
2024-01-12T07:49:34.427Z,101373.69
2024-01-12T07:52:36.590Z,101382.06
2024-01-12T07:55:39.496Z,101384.31
2024-01-12T07:58:41.625Z,101385.31
2024-01-12T08:01:45.452Z,101390.78
2024-01-12T08:04:47.933Z,101389.47
2024-01-12T08:07:50.890Z,101396.53
2024-01-12T08:10:53.352Z,101397.53
2024-01-12T08:13:55.925Z,101399.97
2024-01-12T08:16:58.358Z,101404.47
2024-01-12T08:20:00.548Z,101405.91
2024-01-12T08:23:03.147Z,101402.63
2024-01-12T08:26:05.924Z,101408.53
2024-01-12T08:29:08.781Z,101412.00
2024-01-12T08:32:10.926Z,101411.19
2024-01-12T08:35:13.668Z,101418.34
2024-01-12T08:38:15.860Z,101423.63
2024-01-12T08:41:18.517Z,101424.22
2024-01-12T08:44:20.723Z,101425.69
2024-01-12T08:47:23.373Z,101424.50
2024-01-12T08:50:26.212Z,101431.50
2024-01-12T08:53:29.423Z,101430.13
2024-01-12T08:56:31.817Z,101432.56
2024-01-12T08:59:34.434Z,101436.25
2024-01-12T09:02:36.735Z,101440.69
2024-01-12T09:05:39.418Z,101437.97
2024-01-12T09:08:42.147Z,101438.22
2024-01-12T09:11:46.027Z,101442.53
2024-01-12T09:14:48.471Z,101449.47
2024-01-12T09:17:51.120Z,101447.88
2024-01-12T09:20:53.546Z,101450.94
2024-01-12T09:23:56.129Z,101454.41
2024-01-12T09:26:58.391Z,101457.44
2024-01-12T09:30:01.040Z,101464.75
2024-01-12T09:33:03.696Z,101462.75
2024-01-12T09:36:06.818Z,101454.59
2024-01-12T09:39:15.595Z,101448.81
2024-01-12T09:42:22.569Z,101456.94
2024-01-12T09:45:26.602Z,101460.03
2024-01-12T09:48:30.892Z,101454.53
2024-01-12T09:51:33.269Z,101452.53
2024-01-12T09:54:36.246Z,101464.56
2024-01-12T09:57:40.444Z,101461.06
2024-01-12T10:00:44.385Z,101452.94
2024-01-12T10:03:48.572Z,101453.31
2024-01-12T10:06:50.970Z,101451.84
2024-01-12T10:09:53.979Z,101459.94
2024-01-12T10:12:56.361Z,101455.69
2024-01-12T10:15:58.864Z,101453.94
2024-01-12T10:19:01.440Z,101447.56
2024-01-12T10:22:04.890Z,101448.22
2024-01-12T10:25:08.293Z,101451.41
2024-01-12T10:28:18.100Z,101452.28
2024-01-12T10:31:21.009Z,101447.31
2024-01-12T10:34:25.710Z,101451.19
2024-01-12T10:37:28.066Z,101448.84
2024-01-12T10:40:30.727Z,101442.06
2024-01-12T10:43:37.591Z,101441.44
2024-01-12T10:46:46.984Z,101439.31
2024-01-12T10:50:00.472Z,101436.87
2024-01-12T10:53:15.333Z,101433.50
2024-01-12T10:56:18.715Z,101433.94
2024-01-12T10:59:23.087Z,101424.94
2024-01-12T11:02:26.052Z,101425.12
2024-01-12T11:05:29.708Z,101425.97
2024-01-12T11:08:32.505Z,101421.97
2024-01-12T11:11:44.738Z,101419.38
2024-01-12T11:14:47.103Z,101423.53
2024-01-12T11:17:49.781Z,101406.47
2024-01-12T11:21:03.359Z,101418.62
2024-01-12T11:24:06.820Z,101417.53
2024-01-12T11:27:11.986Z,101417.41
2024-01-12T11:30:18.322Z,101411.34
2024-01-12T11:33:20.761Z,101405.47
2024-01-12T11:36:28.222Z,101410.50
2024-01-12T11:39:35.141Z,101416.59
2024-01-12T11:42:39.236Z,101409.63
2024-01-12T11:45:42.928Z,101410.75
2024-01-12T11:48:46.190Z,101405.19
2024-01-12T11:51:48.789Z,101397.00
2024-01-12T11:54:51.734Z,101394.50
2024-01-12T11:57:55.490Z,101390.22
2024-01-12T12:00:57.925Z,101397.34
2024-01-12T12:04:00.448Z,101396.00
2024-01-12T12:07:02.767Z,101398.22
2024-01-12T12:10:06.395Z,101389.25
2024-01-12T12:13:12.083Z,101391.59
2024-01-12T12:16:15.965Z,101389.81
2024-01-12T12:19:18.432Z,101387.75
2024-01-12T12:22:21.383Z,101391.44
2024-01-12T12:25:23.701Z,101376.16
2024-01-12T12:28:26.193Z,101383.06
2024-01-12T12:31:29.085Z,101380.34
2024-01-12T12:34:35.131Z,101385.81
2024-01-12T12:37:37.804Z,101376.03
2024-01-12T12:40:40.374Z,101376.56
2024-01-12T12:43:44.914Z,101373.69
2024-01-12T12:46:47.409Z,101367.81
2024-01-12T12:49:49.759Z,101380.03
2024-01-12T12:52:52.692Z,101368.22
2024-01-12T12:55:55.429Z,101359.59
2024-01-12T12:58:58.083Z,101373.31
2024-01-12T13:02:04.147Z,101375.97
2024-01-12T13:05:07.503Z,101380.41
2024-01-12T13:08:09.781Z,101367.97
2024-01-12T13:11:12.390Z,101366.53
2024-01-12T13:14:14.920Z,101368.41
2024-01-12T13:17:17.605Z,101362.50
2024-01-12T13:20:22.307Z,101362.47
2024-01-12T13:23:25.035Z,101356.00
2024-01-12T13:26:28.044Z,101353.19
2024-01-12T13:29:30.493Z,101346.97
2024-01-12T13:32:32.837Z,101349.63
2024-01-12T13:35:35.643Z,101344.88
2024-01-12T13:38:37.881Z,101344.66
2024-01-12T13:41:40.958Z,101333.41
2024-01-12T13:44:43.677Z,101337.94
2024-01-12T13:47:46.340Z,101334.53
2024-01-12T13:50:48.706Z,101332.03
2024-01-12T13:53:53.868Z,101328.50
2024-01-12T13:56:56.047Z,101327.22
2024-01-12T13:59:58.744Z,101325.81
2024-01-12T14:03:01.126Z,101326.25
2024-01-12T14:06:04.106Z,101328.16
2024-01-12T14:09:07.956Z,101326.38
2024-01-12T14:12:11.070Z,101327.66
2024-01-12T14:15:13.416Z,101332.06
2024-01-12T14:18:16.135Z,101338.78
2024-01-12T14:21:18.424Z,101344.88
2024-01-12T14:24:20.917Z,101340.25
2024-01-12T14:27:23.182Z,101336.44
2024-01-12T14:30:25.753Z,101338.28
2024-01-12T14:33:31.032Z,101332.19
2024-01-12T14:36:33.741Z,101321.34
2024-01-12T14:39:35.977Z,101320.53
2024-01-12T14:42:39.226Z,101320.47
2024-01-12T14:45:41.379Z,101323.69
2024-01-12T14:48:44.120Z,101323.88
2024-01-12T14:51:47.302Z,101321.31
2024-01-12T14:54:50.455Z,101317.81
2024-01-12T14:57:52.679Z,101331.22
2024-01-12T15:00:55.184Z,101322.16
2024-01-12T15:04:06.637Z,101327.84
2024-01-12T15:07:17.819Z,101333.69
2024-01-12T15:10:20.255Z,101336.94
2024-01-12T15:13:22.825Z,101337.16
2024-01-12T15:16:26.111Z,101329.56
2024-01-12T15:19:28.852Z,101333.56
2024-01-12T15:22:31.241Z,101342.25
2024-01-12T15:25:34.246Z,101341.41
2024-01-12T15:28:36.681Z,101341.53
2024-01-12T15:31:39.435Z,101342.56
2024-01-12T15:34:41.888Z,101341.56
2024-01-12T15:37:44.420Z,101340.31
2024-01-12T15:40:46.758Z,101348.69
2024-01-12T15:43:49.193Z,101349.28
2024-01-12T15:46:51.320Z,101336.84
2024-01-12T15:49:54.029Z,101346.88
2024-01-12T15:52:58.179Z,101352.84
2024-01-12T15:56:00.704Z,101354.47
2024-01-12T15:59:02.889Z,101355.22
2024-01-12T16:02:05.372Z,101359.72
2024-01-12T16:05:08.331Z,101356.31
2024-01-12T16:08:10.498Z,101349.16
2024-01-12T16:11:20.061Z,101361.19
2024-01-12T16:14:22.432Z,101350.78
2024-01-12T16:17:25.175Z,101355.25
2024-01-12T16:20:27.502Z,101342.09
2024-01-12T16:23:30.058Z,101337.22
2024-01-12T16:26:38.960Z,101346.38
2024-01-12T16:29:41.570Z,101341.06
2024-01-12T16:32:45.463Z,101345.53
2024-01-12T16:35:49.189Z,101335.37
2024-01-12T16:38:51.392Z,101339.22
2024-01-12T16:41:57.110Z,101339.41
2024-01-12T16:45:00.916Z,101335.97
2024-01-12T16:48:04.692Z,101335.37
